Terminal Aerodrome Forecast
Issued by NWS

Home | Current Version | Previous Version | Text Only | Print | Product List | Glossary On
Versions: 1 2 3 4 5 6 7 8 9 10 11 12 13 14 15 16 17 18 19 20 21 22 23 24 25 26
137
FTUS43 KILX 180332 AAB
TAFBMI
TAF AMD
KBMI 180332Z 1804/1824 30010KT 6SM BR SKC
     FM180600 29008KT 3SM BR SKC
     FM181500 18014KT P6SM SKC
     FM181700 17016G25KT P6SM SCT250=

USA.gov is the U.S. government's official web portal to all federal, state and local government web resources and services.